sensor_id;sensor_type;location;lat;lon;timestamp;temperature;humidity
15131;DHT22;7666;50.920;4.628;2024-03-22T00:02:31;12.40;99.90
15131;DHT22;7666;50.920;4.628;2024-03-22T00:05:16;12.40;99.90
15131;DHT22;7666;50.920;4.628;2024-03-22T00:08:03;12.40;99.90
15131;DHT22;7666;50.920;4.628;2024-03-22T00:10:49;12.40;99.90
15131;DHT22;7666;50.920;4.628;2024-03-22T00:13:35;12.40;99.90
15131;DHT22;7666;50.920;4.628;2024-03-22T00:16:21;12.40;99.90
15131;DHT22;7666;50.920;4.628;2024-03-22T00:19:07;12.40;99.90
15131;DHT22;7666;50.920;4.628;2024-03-22T00:21:53;12.40;99.90
15131;DHT22;7666;50.920;4.628;2024-03-22T00:24:39;12.40;99.90
15131;DHT22;7666;50.920;4.628;2024-03-22T00:27:25;12.40;99.90
15131;DHT22;7666;50.920;4.628;2024-03-22T00:30:11;12.40;99.90
15131;DHT22;7666;50.920;4.628;2024-03-22T00:32:56;12.40;99.90
15131;DHT22;7666;50.920;4.628;2024-03-22T00:35:42;12.40;99.90
15131;DHT22;7666;50.920;4.628;2024-03-22T00:38:28;12.40;99.90
15131;DHT22;7666;50.920;4.628;2024-03-22T00:41:14;12.40;99.90
15131;DHT22;7666;50.920;4.628;2024-03-22T00:44:00;12.40;99.90
15131;DHT22;7666;50.920;4.628;2024-03-22T00:46:46;12.40;99.90
15131;DHT22;7666;50.920;4.628;2024-03-22T00:49:32;12.40;99.90
15131;DHT22;7666;50.920;4.628;2024-03-22T00:52:18;12.40;99.90
15131;DHT22;7666;50.920;4.628;2024-03-22T00:55:04;12.40;99.90
15131;DHT22;7666;50.920;4.628;2024-03-22T00:57:51;12.40;99.90
15131;DHT22;7666;50.920;4.628;2024-03-22T01:00:37;12.40;99.90
15131;DHT22;7666;50.920;4.628;2024-03-22T01:03:23;12.40;99.90
15131;DHT22;7666;50.920;4.628;2024-03-22T01:06:09;12.40;99.90
15131;DHT22;7666;50.920;4.628;2024-03-22T01:08:55;12.30;99.90
15131;DHT22;7666;50.920;4.628;2024-03-22T01:11:41;12.30;99.90
15131;DHT22;7666;50.920;4.628;2024-03-22T01:14:27;12.40;99.90
15131;DHT22;7666;50.920;4.628;2024-03-22T01:17:13;12.40;99.90
15131;DHT22;7666;50.920;4.628;2024-03-22T01:19:59;12.40;99.90
15131;DHT22;7666;50.920;4.628;2024-03-22T01:22:45;12.40;99.90
15131;DHT22;7666;50.920;4.628;2024-03-22T01:25:31;12.30;99.90
15131;DHT22;7666;50.920;4.628;2024-03-22T01:28:17;12.40;99.90
15131;DHT22;7666;50.920;4.628;2024-03-22T01:31:03;12.40;99.90
15131;DHT22;7666;50.920;4.628;2024-03-22T01:33:49;12.40;99.90
15131;DHT22;7666;50.920;4.628;2024-03-22T01:36:35;12.30;99.90
15131;DHT22;7666;50.920;4.628;2024-03-22T01:39:21;12.40;99.90
15131;DHT22;7666;50.920;4.628;2024-03-22T01:42:07;12.30;99.90
15131;DHT22;7666;50.920;4.628;2024-03-22T01:44:53;12.30;99.90
15131;DHT22;7666;50.920;4.628;2024-03-22T01:47:39;12.40;99.90
15131;DHT22;7666;50.920;4.628;2024-03-22T01:50:25;12.40;99.90
15131;DHT22;7666;50.920;4.628;2024-03-22T01:53:11;12.30;99.90
15131;DHT22;7666;50.920;4.628;2024-03-22T01:55:58;12.30;99.90
15131;DHT22;7666;50.920;4.628;2024-03-22T01:58:44;12.30;99.90
15131;DHT22;7666;50.920;4.628;2024-03-22T02:01:31;12.30;99.90
15131;DHT22;7666;50.920;4.628;2024-03-22T02:04:17;12.30;99.90
15131;DHT22;7666;50.920;4.628;2024-03-22T02:07:03;12.30;99.90
15131;DHT22;7666;50.920;4.628;2024-03-22T02:09:49;12.20;99.90
15131;DHT22;7666;50.920;4.628;2024-03-22T02:12:35;12.20;99.90
15131;DHT22;7666;50.920;4.628;2024-03-22T02:15:21;12.20;99.90
15131;DHT22;7666;50.920;4.628;2024-03-22T02:18:07;12.10;99.90
15131;DHT22;7666;50.920;4.628;2024-03-22T02:20:53;12.10;99.90
15131;DHT22;7666;50.920;4.628;2024-03-22T02:23:40;12.10;99.90
15131;DHT22;7666;50.920;4.628;2024-03-22T02:26:26;12.10;99.90
15131;DHT22;7666;50.920;4.628;2024-03-22T02:29:11;12.10;99.90
15131;DHT22;7666;50.920;4.628;2024-03-22T02:31:57;12.00;99.90
15131;DHT22;7666;50.920;4.628;2024-03-22T02:34:44;12.00;99.90
15131;DHT22;7666;50.920;4.628;2024-03-22T02:37:29;12.00;99.90
15131;DHT22;7666;50.920;4.628;2024-03-22T02:40:17;12.00;99.90
15131;DHT22;7666;50.920;4.628;2024-03-22T02:43:03;12.00;99.90
15131;DHT22;7666;50.920;4.628;2024-03-22T02:45:49;12.00;99.90
15131;DHT22;7666;50.920;4.628;2024-03-22T02:48:35;12.10;99.90
15131;DHT22;7666;50.920;4.628;2024-03-22T02:51:21;12.10;99.90
15131;DHT22;7666;50.920;4.628;2024-03-22T02:54:07;12.10;99.90
15131;DHT22;7666;50.920;4.628;2024-03-22T02:56:53;12.10;99.90
15131;DHT22;7666;50.920;4.628;2024-03-22T02:59:39;12.10;99.90
15131;DHT22;7666;50.920;4.628;2024-03-22T03:02:25;12.10;99.90
15131;DHT22;7666;50.920;4.628;2024-03-22T03:05:11;12.10;99.90
15131;DHT22;7666;50.920;4.628;2024-03-22T03:07:57;12.10;99.90
15131;DHT22;7666;50.920;4.628;2024-03-22T03:10:43;12.10;99.90
15131;DHT22;7666;50.920;4.628;2024-03-22T03:13:29;12.10;99.90
15131;DHT22;7666;50.920;4.628;2024-03-22T03:16:14;12.10;99.90
15131;DHT22;7666;50.920;4.628;2024-03-22T03:19:00;12.10;99.90
15131;DHT22;7666;50.920;4.628;2024-03-22T03:21:46;12.10;99.90
15131;DHT22;7666;50.920;4.628;2024-03-22T03:24:32;12.10;99.90
15131;DHT22;7666;50.920;4.628;2024-03-22T03:27:18;12.10;99.90
15131;DHT22;7666;50.920;4.628;2024-03-22T03:30:04;12.10;99.90
15131;DHT22;7666;50.920;4.628;2024-03-22T03:32:51;12.10;99.90
15131;DHT22;7666;50.920;4.628;2024-03-22T03:35:37;12.00;99.90
15131;DHT22;7666;50.920;4.628;2024-03-22T03:38:23;12.10;99.90
15131;DHT22;7666;50.920;4.628;2024-03-22T03:41:08;12.00;99.90
15131;DHT22;7666;50.920;4.628;2024-03-22T03:43:54;12.00;99.90
15131;DHT22;7666;50.920;4.628;2024-03-22T03:46:40;12.00;99.90
15131;DHT22;7666;50.920;4.628;2024-03-22T03:49:26;12.00;99.90
15131;DHT22;7666;50.920;4.628;2024-03-22T03:52:12;12.00;99.90
15131;DHT22;7666;50.920;4.628;2024-03-22T03:54:58;12.00;99.90
15131;DHT22;7666;50.920;4.628;2024-03-22T03:57:44;12.00;99.90
15131;DHT22;7666;50.920;4.628;2024-03-22T04:00:30;12.00;99.90
15131;DHT22;7666;50.920;4.628;2024-03-22T04:03:16;12.00;99.90
15131;DHT22;7666;50.920;4.628;2024-03-22T04:06:02;12.00;99.90
15131;DHT22;7666;50.920;4.628;2024-03-22T04:08:48;12.00;99.90
15131;DHT22;7666;50.920;4.628;2024-03-22T04:11:34;12.00;99.90
15131;DHT22;7666;50.920;4.628;2024-03-22T04:14:20;12.00;99.90
15131;DHT22;7666;50.920;4.628;2024-03-22T04:17:06;12.00;99.90
15131;DHT22;7666;50.920;4.628;2024-03-22T04:19:52;12.00;99.90
15131;DHT22;7666;50.920;4.628;2024-03-22T04:22:38;12.00;99.90
15131;DHT22;7666;50.920;4.628;2024-03-22T04:25:24;11.90;99.90
15131;DHT22;7666;50.920;4.628;2024-03-22T04:28:10;11.90;99.90
15131;DHT22;7666;50.920;4.628;2024-03-22T04:31:09;12.00;99.90
15131;DHT22;7666;50.920;4.628;2024-03-22T04:33:55;11.90;99.90
15131;DHT22;7666;50.920;4.628;2024-03-22T04:36:41;11.90;99.90
15131;DHT22;7666;50.920;4.628;2024-03-22T04:39:27;11.90;99.90
15131;DHT22;7666;50.920;4.628;2024-03-22T04:42:13;11.90;99.90
15131;DHT22;7666;50.920;4.628;2024-03-22T04:44:59;11.90;99.90
15131;DHT22;7666;50.920;4.628;2024-03-22T04:47:45;11.90;99.90
15131;DHT22;7666;50.920;4.628;2024-03-22T04:50:31;11.90;99.90
15131;DHT22;7666;50.920;4.628;2024-03-22T04:53:18;11.90;99.90
15131;DHT22;7666;50.920;4.628;2024-03-22T04:56:04;11.90;99.90
15131;DHT22;7666;50.920;4.628;2024-03-22T04:58:50;11.90;99.90
15131;DHT22;7666;50.920;4.628;2024-03-22T05:01:36;11.90;99.90
15131;DHT22;7666;50.920;4.628;2024-03-22T05:04:22;11.90;99.90
15131;DHT22;7666;50.920;4.628;2024-03-22T05:07:08;11.90;99.90
15131;DHT22;7666;50.920;4.628;2024-03-22T05:09:54;11.90;99.90
15131;DHT22;7666;50.920;4.628;2024-03-22T05:12:40;11.90;99.90
15131;DHT22;7666;50.920;4.628;2024-03-22T05:15:26;11.80;99.90
15131;DHT22;7666;50.920;4.628;2024-03-22T05:18:12;11.80;99.90
15131;DHT22;7666;50.920;4.628;2024-03-22T05:20:58;11.80;99.90
15131;DHT22;7666;50.920;4.628;2024-03-22T05:23:44;11.80;99.90
15131;DHT22;7666;50.920;4.628;2024-03-22T05:26:30;11.80;99.90
15131;DHT22;7666;50.920;4.628;2024-03-22T05:29:21;11.80;99.90
15131;DHT22;7666;50.920;4.628;2024-03-22T05:32:07;11.80;99.90
15131;DHT22;7666;50.920;4.628;2024-03-22T05:34:53;11.80;99.90
15131;DHT22;7666;50.920;4.628;2024-03-22T05:37:39;11.70;99.90
15131;DHT22;7666;50.920;4.628;2024-03-22T05:40:25;11.70;99.90
15131;DHT22;7666;50.920;4.628;2024-03-22T05:43:11;11.70;99.90
15131;DHT22;7666;50.920;4.628;2024-03-22T05:45:57;11.70;99.90
15131;DHT22;7666;50.920;4.628;2024-03-22T05:48:43;11.70;99.90
15131;DHT22;7666;50.920;4.628;2024-03-22T05:51:29;11.60;99.90
15131;DHT22;7666;50.920;4.628;2024-03-22T05:54:16;11.70;99.90
15131;DHT22;7666;50.920;4.628;2024-03-22T05:57:02;11.60;99.90
15131;DHT22;7666;50.920;4.628;2024-03-22T05:59:48;11.60;99.90
15131;DHT22;7666;50.920;4.628;2024-03-22T06:02:34;11.60;99.90
15131;DHT22;7666;50.920;4.628;2024-03-22T06:05:20;11.60;99.90
15131;DHT22;7666;50.920;4.628;2024-03-22T06:08:06;11.60;99.90
15131;DHT22;7666;50.920;4.628;2024-03-22T06:10:54;11.60;99.90
15131;DHT22;7666;50.920;4.628;2024-03-22T06:13:40;11.60;99.90
15131;DHT22;7666;50.920;4.628;2024-03-22T06:16:26;11.60;99.90
15131;DHT22;7666;50.920;4.628;2024-03-22T06:19:12;11.60;99.90
15131;DHT22;7666;50.920;4.628;2024-03-22T06:21:58;11.60;99.90
15131;DHT22;7666;50.920;4.628;2024-03-22T06:24:44;11.60;99.90
15131;DHT22;7666;50.920;4.628;2024-03-22T06:27:30;11.50;99.90
15131;DHT22;7666;50.920;4.628;2024-03-22T06:30:16;11.50;99.90
15131;DHT22;7666;50.920;4.628;2024-03-22T06:33:02;11.50;99.90
15131;DHT22;7666;50.920;4.628;2024-03-22T06:35:50;11.40;99.90
15131;DHT22;7666;50.920;4.628;2024-03-22T06:38:36;11.40;99.90
15131;DHT22;7666;50.920;4.628;2024-03-22T06:41:22;11.40;99.90
15131;DHT22;7666;50.920;4.628;2024-03-22T06:44:08;11.50;99.90
15131;DHT22;7666;50.920;4.628;2024-03-22T06:46:57;11.50;99.90
15131;DHT22;7666;50.920;4.628;2024-03-22T06:49:43;11.40;99.90
15131;DHT22;7666;50.920;4.628;2024-03-22T06:52:29;11.40;99.90
15131;DHT22;7666;50.920;4.628;2024-03-22T06:55:15;11.40;99.90
15131;DHT22;7666;50.920;4.628;2024-03-22T06:58:01;11.40;99.90
15131;DHT22;7666;50.920;4.628;2024-03-22T07:00:47;11.40;99.90
15131;DHT22;7666;50.920;4.628;2024-03-22T07:03:33;11.40;99.90
15131;DHT22;7666;50.920;4.628;2024-03-22T07:06:19;11.50;99.90
15131;DHT22;7666;50.920;4.628;2024-03-22T07:09:06;11.50;99.90
15131;DHT22;7666;50.920;4.628;2024-03-22T07:11:52;11.50;99.90
15131;DHT22;7666;50.920;4.628;2024-03-22T07:14:38;11.60;99.90
15131;DHT22;7666;50.920;4.628;2024-03-22T07:17:24;11.60;99.90
15131;DHT22;7666;50.920;4.628;2024-03-22T07:20:10;11.50;99.90
15131;DHT22;7666;50.920;4.628;2024-03-22T07:22:56;11.50;99.90
15131;DHT22;7666;50.920;4.628;2024-03-22T07:25:42;11.50;99.90
15131;DHT22;7666;50.920;4.628;2024-03-22T07:28:31;11.50;99.90
15131;DHT22;7666;50.920;4.628;2024-03-22T07:31:17;11.50;99.90
15131;DHT22;7666;50.920;4.628;2024-03-22T07:34:03;11.50;99.90
15131;DHT22;7666;50.920;4.628;2024-03-22T07:36:49;11.50;99.90
15131;DHT22;7666;50.920;4.628;2024-03-22T07:39:35;11.50;99.90
15131;DHT22;7666;50.920;4.628;2024-03-22T07:42:21;11.60;99.90
15131;DHT22;7666;50.920;4.628;2024-03-22T07:45:08;11.60;99.90
15131;DHT22;7666;50.920;4.628;2024-03-22T07:47:54;11.60;99.90
15131;DHT22;7666;50.920;4.628;2024-03-22T07:50:40;11.60;99.90
15131;DHT22;7666;50.920;4.628;2024-03-22T07:53:26;11.60;99.90
15131;DHT22;7666;50.920;4.628;2024-03-22T07:56:12;11.70;99.90
15131;DHT22;7666;50.920;4.628;2024-03-22T07:58:58;11.70;99.90
15131;DHT22;7666;50.920;4.628;2024-03-22T08:01:45;11.70;99.90
15131;DHT22;7666;50.920;4.628;2024-03-22T08:04:32;11.80;99.90
15131;DHT22;7666;50.920;4.628;2024-03-22T08:07:18;11.80;99.90
15131;DHT22;7666;50.920;4.628;2024-03-22T08:10:05;11.90;99.90
15131;DHT22;7666;50.920;4.628;2024-03-22T08:12:51;11.90;99.90
15131;DHT22;7666;50.920;4.628;2024-03-22T08:15:38;11.90;99.90
15131;DHT22;7666;50.920;4.628;2024-03-22T08:18:24;12.00;99.90
15131;DHT22;7666;50.920;4.628;2024-03-22T08:21:10;12.10;99.90
15131;DHT22;7666;50.920;4.628;2024-03-22T08:23:56;12.10;99.90
15131;DHT22;7666;50.920;4.628;2024-03-22T08:26:42;12.00;99.90
15131;DHT22;7666;50.920;4.628;2024-03-22T08:29:31;12.00;99.90
15131;DHT22;7666;50.920;4.628;2024-03-22T08:32:17;11.90;99.90
15131;DHT22;7666;50.920;4.628;2024-03-22T08:35:03;11.90;99.90
15131;DHT22;7666;50.920;4.628;2024-03-22T08:37:49;12.00;99.90
15131;DHT22;7666;50.920;4.628;2024-03-22T08:40:38;12.00;99.90
15131;DHT22;7666;50.920;4.628;2024-03-22T08:43:24;12.10;99.90
15131;DHT22;7666;50.920;4.628;2024-03-22T08:46:14;12.20;99.90
15131;DHT22;7666;50.920;4.628;2024-03-22T08:49:00;12.20;99.90
15131;DHT22;7666;50.920;4.628;2024-03-22T08:51:47;12.30;99.90
15131;DHT22;7666;50.920;4.628;2024-03-22T08:54:34;12.30;99.90
15131;DHT22;7666;50.920;4.628;2024-03-22T08:57:20;12.40;99.90
15131;DHT22;7666;50.920;4.628;2024-03-22T09:00:06;12.40;99.90
15131;DHT22;7666;50.920;4.628;2024-03-22T09:02:53;12.50;99.90
15131;DHT22;7666;50.920;4.628;2024-03-22T09:05:40;12.50;99.90
15131;DHT22;7666;50.920;4.628;2024-03-22T09:08:26;12.60;99.90
15131;DHT22;7666;50.920;4.628;2024-03-22T09:11:15;12.60;99.90
15131;DHT22;7666;50.920;4.628;2024-03-22T09:14:00;12.60;99.90
15131;DHT22;7666;50.920;4.628;2024-03-22T09:16:46;12.50;99.90
15131;DHT22;7666;50.920;4.628;2024-03-22T09:19:33;12.50;99.90
15131;DHT22;7666;50.920;4.628;2024-03-22T09:22:19;12.50;99.90
15131;DHT22;7666;50.920;4.628;2024-03-22T09:25:05;12.60;99.90
15131;DHT22;7666;50.920;4.628;2024-03-22T09:27:51;12.60;99.90
15131;DHT22;7666;50.920;4.628;2024-03-22T09:30:38;12.60;99.90
15131;DHT22;7666;50.920;4.628;2024-03-22T09:33:24;12.60;99.90
15131;DHT22;7666;50.920;4.628;2024-03-22T09:36:11;12.60;99.90
15131;DHT22;7666;50.920;4.628;2024-03-22T09:38:57;12.70;99.90
15131;DHT22;7666;50.920;4.628;2024-03-22T09:41:43;12.70;99.90
15131;DHT22;7666;50.920;4.628;2024-03-22T09:44:30;12.70;99.90
15131;DHT22;7666;50.920;4.628;2024-03-22T09:47:18;12.70;99.90
15131;DHT22;7666;50.920;4.628;2024-03-22T09:50:07;12.70;99.90
15131;DHT22;7666;50.920;4.628;2024-03-22T09:52:55;12.70;99.90
15131;DHT22;7666;50.920;4.628;2024-03-22T09:55:41;12.70;99.90
15131;DHT22;7666;50.920;4.628;2024-03-22T09:58:29;12.80;99.90
15131;DHT22;7666;50.920;4.628;2024-03-22T10:01:15;12.80;99.90
15131;DHT22;7666;50.920;4.628;2024-03-22T10:04:02;12.80;99.90
15131;DHT22;7666;50.920;4.628;2024-03-22T10:06:48;12.90;99.90
15131;DHT22;7666;50.920;4.628;2024-03-22T10:09:34;12.90;99.90
15131;DHT22;7666;50.920;4.628;2024-03-22T10:12:20;12.90;99.90
15131;DHT22;7666;50.920;4.628;2024-03-22T10:15:06;12.90;99.90
15131;DHT22;7666;50.920;4.628;2024-03-22T10:17:56;12.90;99.90
15131;DHT22;7666;50.920;4.628;2024-03-22T10:20:43;12.90;99.90
15131;DHT22;7666;50.920;4.628;2024-03-22T10:23:32;13.00;99.90
15131;DHT22;7666;50.920;4.628;2024-03-22T10:26:18;13.10;99.90
15131;DHT22;7666;50.920;4.628;2024-03-22T10:29:07;13.10;99.90
15131;DHT22;7666;50.920;4.628;2024-03-22T10:31:55;13.10;99.90
15131;DHT22;7666;50.920;4.628;2024-03-22T10:34:41;13.20;99.90
15131;DHT22;7666;50.920;4.628;2024-03-22T10:37:30;13.10;99.90
15131;DHT22;7666;50.920;4.628;2024-03-22T10:40:17;13.20;99.90
15131;DHT22;7666;50.920;4.628;2024-03-22T10:43:03;13.30;99.90
15131;DHT22;7666;50.920;4.628;2024-03-22T10:45:50;13.30;99.90
15131;DHT22;7666;50.920;4.628;2024-03-22T10:48:38;13.40;99.90
15131;DHT22;7666;50.920;4.628;2024-03-22T10:51:26;13.40;99.90
15131;DHT22;7666;50.920;4.628;2024-03-22T10:54:20;13.50;99.90
15131;DHT22;7666;50.920;4.628;2024-03-22T10:57:12;13.50;99.90
15131;DHT22;7666;50.920;4.628;2024-03-22T10:59:59;13.40;99.90
15131;DHT22;7666;50.920;4.628;2024-03-22T11:02:45;13.40;99.90
15131;DHT22;7666;50.920;4.628;2024-03-22T11:05:31;13.60;99.90
15131;DHT22;7666;50.920;4.628;2024-03-22T11:11:11;13.60;99.90
15131;DHT22;7666;50.920;4.628;2024-03-22T11:13:57;13.60;99.90
15131;DHT22;7666;50.920;4.628;2024-03-22T11:16:44;13.70;99.90
15131;DHT22;7666;50.920;4.628;2024-03-22T11:19:31;13.70;99.90
15131;DHT22;7666;50.920;4.628;2024-03-22T11:22:18;13.70;99.90
15131;DHT22;7666;50.920;4.628;2024-03-22T11:25:04;13.60;99.90
15131;DHT22;7666;50.920;4.628;2024-03-22T11:27:51;13.70;99.90
15131;DHT22;7666;50.920;4.628;2024-03-22T11:30:37;13.60;99.90
15131;DHT22;7666;50.920;4.628;2024-03-22T11:33:23;13.60;99.90
15131;DHT22;7666;50.920;4.628;2024-03-22T11:36:10;13.50;99.90
15131;DHT22;7666;50.920;4.628;2024-03-22T11:38:56;13.50;99.90
15131;DHT22;7666;50.920;4.628;2024-03-22T11:41:42;13.40;99.90
15131;DHT22;7666;50.920;4.628;2024-03-22T11:44:28;13.40;99.90
15131;DHT22;7666;50.920;4.628;2024-03-22T11:47:14;13.30;99.90
15131;DHT22;7666;50.920;4.628;2024-03-22T11:50:01;13.30;99.90
15131;DHT22;7666;50.920;4.628;2024-03-22T11:52:47;13.40;99.90
15131;DHT22;7666;50.920;4.628;2024-03-22T11:55:35;13.30;99.90
15131;DHT22;7666;50.920;4.628;2024-03-22T11:58:21;13.30;99.90
15131;DHT22;7666;50.920;4.628;2024-03-22T12:01:07;13.30;99.90
15131;DHT22;7666;50.920;4.628;2024-03-22T12:03:53;13.30;99.90
15131;DHT22;7666;50.920;4.628;2024-03-22T12:06:42;13.30;99.90
15131;DHT22;7666;50.920;4.628;2024-03-22T12:09:28;13.50;99.90
15131;DHT22;7666;50.920;4.628;2024-03-22T12:12:14;13.50;99.90
15131;DHT22;7666;50.920;4.628;2024-03-22T12:14:59;13.50;99.90
15131;DHT22;7666;50.920;4.628;2024-03-22T12:17:45;13.40;99.90
15131;DHT22;7666;50.920;4.628;2024-03-22T12:20:31;13.30;99.90
15131;DHT22;7666;50.920;4.628;2024-03-22T12:23:17;13.30;99.90
15131;DHT22;7666;50.920;4.628;2024-03-22T12:26:03;13.30;99.90
15131;DHT22;7666;50.920;4.628;2024-03-22T12:28:50;13.20;99.90
15131;DHT22;7666;50.920;4.628;2024-03-22T12:31:39;13.10;99.90
15131;DHT22;7666;50.920;4.628;2024-03-22T12:34:25;13.10;99.90
15131;DHT22;7666;50.920;4.628;2024-03-22T12:37:10;13.10;99.90
15131;DHT22;7666;50.920;4.628;2024-03-22T12:39:56;13.10;99.90
15131;DHT22;7666;50.920;4.628;2024-03-22T12:42:43;13.10;99.90
15131;DHT22;7666;50.920;4.628;2024-03-22T12:45:29;13.20;99.90
15131;DHT22;7666;50.920;4.628;2024-03-22T12:48:15;13.10;99.90
15131;DHT22;7666;50.920;4.628;2024-03-22T12:51:01;13.00;99.90
15131;DHT22;7666;50.920;4.628;2024-03-22T12:53:47;13.00;99.90
15131;DHT22;7666;50.920;4.628;2024-03-22T12:56:33;13.00;99.90
15131;DHT22;7666;50.920;4.628;2024-03-22T12:59:19;13.00;99.90
15131;DHT22;7666;50.920;4.628;2024-03-22T13:02:05;13.00;99.90
15131;DHT22;7666;50.920;4.628;2024-03-22T13:04:52;13.00;99.90
15131;DHT22;7666;50.920;4.628;2024-03-22T13:07:39;13.00;99.90
15131;DHT22;7666;50.920;4.628;2024-03-22T13:10:25;13.10;99.90
15131;DHT22;7666;50.920;4.628;2024-03-22T13:13:11;13.00;99.90
15131;DHT22;7666;50.920;4.628;2024-03-22T13:16:00;12.90;99.90
15131;DHT22;7666;50.920;4.628;2024-03-22T13:18:48;12.80;99.90
15131;DHT22;7666;50.920;4.628;2024-03-22T13:21:34;12.80;99.90
15131;DHT22;7666;50.920;4.628;2024-03-22T13:24:20;12.80;99.90
15131;DHT22;7666;50.920;4.628;2024-03-22T13:27:07;12.80;99.90
15131;DHT22;7666;50.920;4.628;2024-03-22T13:29:53;12.70;99.90
15131;DHT22;7666;50.920;4.628;2024-03-22T13:32:39;12.70;99.90
15131;DHT22;7666;50.920;4.628;2024-03-22T13:35:25;12.70;99.90
15131;DHT22;7666;50.920;4.628;2024-03-22T13:38:11;12.70;99.90
15131;DHT22;7666;50.920;4.628;2024-03-22T13:40:59;12.70;99.90
15131;DHT22;7666;50.920;4.628;2024-03-22T13:43:46;12.70;99.90
15131;DHT22;7666;50.920;4.628;2024-03-22T13:46:32;12.70;99.90
15131;DHT22;7666;50.920;4.628;2024-03-22T13:49:19;12.70;99.90
15131;DHT22;7666;50.920;4.628;2024-03-22T13:52:06;12.80;99.90
15131;DHT22;7666;50.920;4.628;2024-03-22T13:54:52;12.80;99.90
15131;DHT22;7666;50.920;4.628;2024-03-22T13:57:38;12.80;99.90
15131;DHT22;7666;50.920;4.628;2024-03-22T14:00:24;12.70;99.90
15131;DHT22;7666;50.920;4.628;2024-03-22T14:03:11;12.60;99.90
15131;DHT22;7666;50.920;4.628;2024-03-22T14:05:57;12.60;99.90
15131;DHT22;7666;50.920;4.628;2024-03-22T14:08:43;12.60;99.90
15131;DHT22;7666;50.920;4.628;2024-03-22T14:11:28;12.60;99.90
15131;DHT22;7666;50.920;4.628;2024-03-22T14:14:16;12.50;99.90
15131;DHT22;7666;50.920;4.628;2024-03-22T14:17:02;12.60;99.90
15131;DHT22;7666;50.920;4.628;2024-03-22T14:19:48;12.50;99.90
15131;DHT22;7666;50.920;4.628;2024-03-22T14:22:34;12.50;99.90
15131;DHT22;7666;50.920;4.628;2024-03-22T14:25:20;12.50;99.90
15131;DHT22;7666;50.920;4.628;2024-03-22T14:28:06;12.50;99.90
15131;DHT22;7666;50.920;4.628;2024-03-22T14:30:52;12.50;99.90
15131;DHT22;7666;50.920;4.628;2024-03-22T14:33:39;12.50;99.90
15131;DHT22;7666;50.920;4.628;2024-03-22T14:36:25;12.50;99.90
15131;DHT22;7666;50.920;4.628;2024-03-22T14:39:11;12.50;99.90
15131;DHT22;7666;50.920;4.628;2024-03-22T14:41:57;12.50;99.90
15131;DHT22;7666;50.920;4.628;2024-03-22T14:44:43;12.50;99.90
15131;DHT22;7666;50.920;4.628;2024-03-22T14:47:29;12.50;99.90
15131;DHT22;7666;50.920;4.628;2024-03-22T14:50:15;12.50;99.90
15131;DHT22;7666;50.920;4.628;2024-03-22T14:53:01;12.40;99.90
15131;DHT22;7666;50.920;4.628;2024-03-22T14:55:58;12.40;99.90
15131;DHT22;7666;50.920;4.628;2024-03-22T14:58:44;12.30;99.90
15131;DHT22;7666;50.920;4.628;2024-03-22T15:01:30;12.30;99.90
15131;DHT22;7666;50.920;4.628;2024-03-22T15:04:16;12.30;99.90
15131;DHT22;7666;50.920;4.628;2024-03-22T15:07:03;12.30;99.90
15131;DHT22;7666;50.920;4.628;2024-03-22T15:09:48;12.30;99.90
15131;DHT22;7666;50.920;4.628;2024-03-22T15:12:36;12.30;99.90
15131;DHT22;7666;50.920;4.628;2024-03-22T15:15:22;12.30;99.90
15131;DHT22;7666;50.920;4.628;2024-03-22T15:18:09;12.30;99.90
15131;DHT22;7666;50.920;4.628;2024-03-22T15:20:55;12.30;99.90
15131;DHT22;7666;50.920;4.628;2024-03-22T15:23:41;12.20;99.90
15131;DHT22;7666;50.920;4.628;2024-03-22T15:26:27;12.10;99.90
15131;DHT22;7666;50.920;4.628;2024-03-22T15:29:13;12.10;99.90
15131;DHT22;7666;50.920;4.628;2024-03-22T15:31:58;12.00;99.90
15131;DHT22;7666;50.920;4.628;2024-03-22T15:34:45;11.90;99.90
15131;DHT22;7666;50.920;4.628;2024-03-22T15:37:30;11.90;99.90
15131;DHT22;7666;50.920;4.628;2024-03-22T15:40:16;11.90;99.90
15131;DHT22;7666;50.920;4.628;2024-03-22T15:43:02;11.80;99.90
15131;DHT22;7666;50.920;4.628;2024-03-22T15:45:53;11.80;99.90
15131;DHT22;7666;50.920;4.628;2024-03-22T15:48:39;11.60;99.90
15131;DHT22;7666;50.920;4.628;2024-03-22T15:51:25;11.50;99.90
15131;DHT22;7666;50.920;4.628;2024-03-22T15:54:11;11.50;99.90
15131;DHT22;7666;50.920;4.628;2024-03-22T15:56:57;11.50;99.90
15131;DHT22;7666;50.920;4.628;2024-03-22T15:59:43;11.50;99.90
15131;DHT22;7666;50.920;4.628;2024-03-22T16:02:29;11.60;99.90
15131;DHT22;7666;50.920;4.628;2024-03-22T16:05:16;11.50;99.90
15131;DHT22;7666;50.920;4.628;2024-03-22T16:08:03;11.50;99.90
15131;DHT22;7666;50.920;4.628;2024-03-22T16:10:49;11.50;99.90
15131;DHT22;7666;50.920;4.628;2024-03-22T16:13:35;11.40;99.90
15131;DHT22;7666;50.920;4.628;2024-03-22T16:16:21;11.40;99.90
15131;DHT22;7666;50.920;4.628;2024-03-22T16:19:07;11.40;99.90
15131;DHT22;7666;50.920;4.628;2024-03-22T16:21:53;11.30;99.90
15131;DHT22;7666;50.920;4.628;2024-03-22T16:24:39;11.40;99.90
15131;DHT22;7666;50.920;4.628;2024-03-22T16:27:25;11.40;99.90
15131;DHT22;7666;50.920;4.628;2024-03-22T16:30:11;11.40;99.90
15131;DHT22;7666;50.920;4.628;2024-03-22T16:32:58;11.40;99.90
15131;DHT22;7666;50.920;4.628;2024-03-22T16:35:44;11.40;99.90
15131;DHT22;7666;50.920;4.628;2024-03-22T16:38:30;11.40;99.90
15131;DHT22;7666;50.920;4.628;2024-03-22T16:41:15;11.40;99.90
15131;DHT22;7666;50.920;4.628;2024-03-22T16:44:01;11.40;99.90
15131;DHT22;7666;50.920;4.628;2024-03-22T16:46:47;11.40;99.90
15131;DHT22;7666;50.920;4.628;2024-03-22T16:49:34;11.40;99.90
15131;DHT22;7666;50.920;4.628;2024-03-22T16:52:20;11.40;99.90
15131;DHT22;7666;50.920;4.628;2024-03-22T16:55:06;11.30;99.90
15131;DHT22;7666;50.920;4.628;2024-03-22T16:57:56;11.30;99.90
15131;DHT22;7666;50.920;4.628;2024-03-22T17:00:46;11.30;99.90
15131;DHT22;7666;50.920;4.628;2024-03-22T17:03:33;11.30;99.90
15131;DHT22;7666;50.920;4.628;2024-03-22T17:06:21;11.30;99.90
15131;DHT22;7666;50.920;4.628;2024-03-22T17:09:07;11.30;99.90
15131;DHT22;7666;50.920;4.628;2024-03-22T17:11:54;11.20;99.90
15131;DHT22;7666;50.920;4.628;2024-03-22T17:14:39;11.20;99.90
15131;DHT22;7666;50.920;4.628;2024-03-22T17:17:25;11.20;99.90
15131;DHT22;7666;50.920;4.628;2024-03-22T17:20:11;11.20;99.90
15131;DHT22;7666;50.920;4.628;2024-03-22T17:23:00;11.20;99.90
15131;DHT22;7666;50.920;4.628;2024-03-22T17:25:46;11.20;99.90
15131;DHT22;7666;50.920;4.628;2024-03-22T17:28:32;11.20;99.90
15131;DHT22;7666;50.920;4.628;2024-03-22T17:31:19;11.20;99.90
15131;DHT22;7666;50.920;4.628;2024-03-22T17:34:05;11.20;99.90
15131;DHT22;7666;50.920;4.628;2024-03-22T17:36:51;11.20;99.90
15131;DHT22;7666;50.920;4.628;2024-03-22T17:39:37;11.10;99.90
15131;DHT22;7666;50.920;4.628;2024-03-22T17:42:23;11.10;99.90
15131;DHT22;7666;50.920;4.628;2024-03-22T17:45:09;11.10;99.90
15131;DHT22;7666;50.920;4.628;2024-03-22T17:47:55;11.00;99.90
15131;DHT22;7666;50.920;4.628;2024-03-22T17:50:41;11.00;99.90